createdAt,value
2018-12-25T00:00:48.380Z,98464.59
2018-12-25T00:03:44.940Z,98473.96
2018-12-25T00:06:42.589Z,98478.56
2018-12-25T00:09:39.447Z,98484.83
2018-12-25T00:12:37.261Z,98487.94
2018-12-25T00:15:34.065Z,98491.28
2018-12-25T00:18:31.589Z,98492.16
2018-12-25T00:21:28.191Z,98494.20
2018-12-25T00:24:25.856Z,98489.66
2018-12-25T00:27:24.544Z,98498.52
2018-12-25T00:30:22.267Z,98502.97
2018-12-25T00:33:18.870Z,98506.92
2018-12-25T00:36:16.984Z,98511.24
2018-12-25T00:39:13.663Z,98497.55
2018-12-25T00:42:09.429Z,98504.10
2018-12-25T00:45:07.601Z,98496.31
2018-12-25T00:48:04.532Z,98502.95
2018-12-25T00:51:02.657Z,98498.50
2018-12-25T00:54:01.479Z,98505.27
2018-12-25T00:56:59.345Z,98495.81
2018-12-25T00:59:56.095Z,98489.64
2018-12-25T01:02:53.657Z,98484.87
2018-12-25T01:05:50.546Z,98490.66
2018-12-25T01:08:49.169Z,98489.78
2018-12-25T01:11:45.668Z,98482.05
2018-12-25T01:38:32.534Z,98444.99
2018-12-25T01:41:02.702Z,98435.16
2018-12-25T01:43:32.868Z,98435.43
2018-12-25T01:46:03.095Z,98436.59
2018-12-25T01:48:33.247Z,98433.20
2018-12-25T01:51:04.402Z,98443.22
2018-12-25T01:53:34.591Z,98439.27
2018-12-25T01:56:04.936Z,98440.70
2018-12-25T01:58:35.049Z,98435.64
2018-12-25T02:01:05.345Z,98441.23
2018-12-25T02:03:36.319Z,98449.48
2018-12-25T02:06:06.540Z,98462.77
2018-12-25T02:08:36.753Z,98468.52
2018-12-25T02:11:06.920Z,98476.80
2018-12-25T02:13:37.174Z,98486.58
2018-12-25T02:16:08.924Z,98501.39
2018-12-25T02:18:39.075Z,98512.45
2018-12-25T02:21:12.890Z,98501.73
2018-12-25T02:23:43.859Z,98498.25
2018-12-25T02:26:14.146Z,98500.98
2018-12-25T02:28:44.353Z,98501.73
2018-12-25T02:31:14.604Z,98499.73
2018-12-25T02:33:44.877Z,98495.75
2018-12-25T02:36:16.876Z,98505.83
2018-12-25T02:38:47.037Z,98504.11
2018-12-25T02:41:17.318Z,98493.80
2018-12-25T02:43:48.926Z,98488.05
2018-12-25T02:46:19.138Z,98477.61
2018-12-25T02:48:49.342Z,98476.16
2018-12-25T02:51:21.246Z,98477.95
2018-12-25T02:53:51.415Z,98475.05
2018-12-25T02:56:21.535Z,98475.05
2018-12-25T02:58:52.654Z,98476.17
2018-12-25T03:01:24.720Z,98465.05
2018-12-25T03:03:54.885Z,98462.56
2018-12-25T03:06:25.014Z,98470.80
2018-12-25T03:08:55.180Z,98469.35
2018-12-25T03:11:25.306Z,98480.97
2018-12-25T03:13:55.470Z,98475.40
2018-12-25T03:16:25.642Z,98476.14
2018-12-25T03:18:55.794Z,98474.42
2018-12-25T03:21:25.929Z,98469.89
2018-12-25T03:23:56.107Z,98468.44
2018-12-25T03:26:26.361Z,98479.18
2018-12-25T03:28:56.645Z,98474.75
2018-12-25T03:31:27.667Z,98473.27
2018-12-25T03:33:57.821Z,98471.61
2018-12-25T03:36:28.007Z,98475.13
2018-12-25T03:38:58.196Z,98472.36
2018-12-25T03:41:30.998Z,98478.59
2018-12-25T03:44:02.720Z,98478.59
2018-12-25T03:46:32.900Z,98478.19
2018-12-25T03:49:03.171Z,98478.13
2018-12-25T03:51:33.281Z,98469.86
2018-12-25T03:54:03.512Z,98478.23
2018-12-25T03:56:33.638Z,98469.95
2018-12-25T03:59:03.814Z,98463.84
2018-12-25T04:01:34.701Z,98466.98
2018-12-25T04:04:04.918Z,98465.63
2018-12-25T04:06:35.834Z,98471.64
2018-12-25T04:09:07.521Z,98477.15
2018-12-25T04:11:37.640Z,98477.15
2018-12-25T04:14:08.676Z,98473.88
2018-12-25T04:16:38.844Z,98473.40
2018-12-25T04:19:09.047Z,98477.62
2018-12-25T04:21:39.223Z,98472.42
2018-12-25T04:24:10.235Z,98474.30
2018-12-25T04:26:40.437Z,98471.50
2018-12-25T04:29:12.278Z,98474.77
2018-12-25T04:31:42.398Z,98465.52
2018-12-25T04:34:12.627Z,98469.78
2018-12-25T04:36:43.562Z,98469.00
2018-12-25T04:39:13.647Z,98469.00
2018-12-25T04:41:43.749Z,98476.29
2018-12-25T04:44:13.923Z,98469.33
2018-12-25T04:46:44.118Z,98476.02
2018-12-25T04:49:14.297Z,98474.00
2018-12-25T04:51:44.540Z,98475.72
2018-12-25T04:54:16.371Z,98479.98
2018-12-25T04:56:46.624Z,98476.94
2018-12-25T04:59:18.619Z,98476.16
2018-12-25T05:01:49.584Z,98474.44
2018-12-25T05:04:19.810Z,98479.64
2018-12-25T05:06:50.138Z,98476.37
2018-12-25T05:09:22.638Z,98476.16
2018-12-25T05:11:52.871Z,98480.89
2018-12-25T05:14:23.098Z,98484.84
2018-12-25T05:16:53.296Z,98489.84
2018-12-25T05:19:23.492Z,98493.86
2018-12-25T05:21:53.827Z,98494.74
2018-12-25T05:24:24.816Z,98490.11
2018-12-25T05:26:56.576Z,98487.41
2018-12-25T05:29:26.769Z,98488.45
2018-12-25T05:31:56.954Z,98492.47
2018-12-25T05:34:28.787Z,98487.95
2018-12-25T05:36:59.714Z,98482.95
2018-12-25T05:39:29.902Z,98488.39
2018-12-25T05:42:00.099Z,98480.62
2018-12-25T05:44:30.370Z,98479.75
2018-12-25T05:47:00.553Z,98487.34
2018-12-25T05:49:31.006Z,98489.10
2018-12-25T05:52:04.426Z,98494.84
2018-12-25T05:54:34.570Z,98491.87
2018-12-25T05:57:04.812Z,98490.89
2018-12-25T05:59:35.061Z,98488.86
2018-12-25T06:02:05.275Z,98494.84
2018-12-25T06:04:36.262Z,98495.11
2018-12-25T06:07:06.454Z,98501.25
2018-12-25T06:09:37.497Z,98500.62
2018-12-25T06:12:07.616Z,98500.82
2018-12-25T06:14:37.808Z,98499.09
2018-12-25T06:17:07.985Z,98500.82
2018-12-25T06:19:38.126Z,98502.34
2018-12-25T06:22:08.328Z,98501.59
2018-12-25T06:24:38.468Z,98499.73
2018-12-25T06:27:08.745Z,98505.51
2018-12-25T06:29:39.859Z,98506.15
2018-12-25T06:32:10.031Z,98510.61
2018-12-25T06:34:40.279Z,98504.63
2018-12-25T06:37:10.449Z,98499.43
2018-12-25T06:39:41.337Z,98498.20
2018-12-25T06:42:13.095Z,98498.77
2018-12-25T06:44:43.216Z,98505.55
2018-12-25T06:47:13.399Z,98499.58
2018-12-25T06:49:43.505Z,98501.59
2018-12-25T06:52:14.459Z,98500.62
2018-12-25T06:54:44.547Z,98505.61
2018-12-25T06:57:16.710Z,98500.83
2018-12-25T06:59:47.584Z,98499.84
2018-12-25T07:02:18.534Z,98496.09
2018-12-25T07:04:53.460Z,98490.55
2018-12-25T07:07:23.711Z,98490.70
2018-12-25T07:09:53.828Z,98487.28
2018-12-25T07:12:23.913Z,98491.02
2018-12-25T07:14:54.048Z,98486.59
2018-12-25T07:17:24.114Z,98480.14
2018-12-25T07:19:54.338Z,98483.98
2018-12-25T07:22:24.560Z,98493.45
2018-12-25T07:24:55.708Z,98486.94
2018-12-25T07:27:26.716Z,98489.64
2018-12-25T07:29:56.881Z,98491.93
2018-12-25T07:32:27.314Z,98485.45
2018-12-25T07:34:57.521Z,98481.48
2018-12-25T07:37:27.618Z,98472.48
2018-12-25T07:39:57.757Z,98471.70
2018-12-25T07:42:27.943Z,98478.88
2018-12-25T07:44:58.096Z,98488.12
2018-12-25T07:47:28.332Z,98490.38
2018-12-25T07:49:58.644Z,98484.37
2018-12-25T07:52:28.844Z,98481.82
2018-12-25T07:54:59.733Z,98488.78
2018-12-25T07:57:30.672Z,98486.66
2018-12-25T08:00:01.584Z,98494.52
2018-12-25T08:02:31.680Z,98487.29
2018-12-25T08:05:01.747Z,98491.65
2018-12-25T08:07:31.939Z,98496.48
2018-12-25T08:10:02.887Z,98503.20
2018-12-25T08:12:34.874Z,98508.44
2018-12-25T08:15:05.134Z,98510.77
2018-12-25T08:17:36.400Z,98506.33
2018-12-25T08:20:07.445Z,98507.00
2018-12-25T08:22:37.626Z,98511.73
2018-12-25T08:25:07.793Z,98504.41
2018-12-25T08:27:38.059Z,98510.16
2018-12-25T08:30:08.302Z,98510.16
2018-12-25T08:32:38.467Z,98521.13
2018-12-25T08:35:09.616Z,98521.13
2018-12-25T08:37:42.394Z,98518.16
2018-12-25T08:40:12.571Z,98505.66
2018-12-25T08:42:42.710Z,98505.93
2018-12-25T08:45:12.873Z,98500.16
2018-12-25T08:47:43.064Z,98500.87
2018-12-25T08:50:14.107Z,98501.58
2018-12-25T08:52:45.809Z,98508.91
2018-12-25T08:55:15.975Z,98500.70
2018-12-25T08:57:46.134Z,98517.63
2018-12-25T09:00:17.048Z,98520.13
2018-12-25T09:02:47.322Z,98517.55
2018-12-25T09:05:17.585Z,98522.79
2018-12-25T09:07:47.845Z,98514.44
2018-12-25T09:10:18.040Z,98522.45
2018-12-25T09:12:50.669Z,98511.59
2018-12-25T09:15:20.841Z,98508.55
2018-12-25T09:17:51.771Z,98516.92
2018-12-25T09:20:22.772Z,98521.56
2018-12-25T09:22:52.976Z,98518.00
2018-12-25T09:25:24.134Z,98529.19
2018-12-25T09:27:55.114Z,98536.89
2018-12-25T09:30:25.305Z,98539.25
2018-12-25T09:32:55.624Z,98542.88
2018-12-25T09:35:28.163Z,98538.65
2018-12-25T09:37:58.402Z,98533.72
2018-12-25T09:40:30.117Z,98528.64
2018-12-25T09:43:00.277Z,98526.56
2018-12-25T09:48:18.909Z,98525.59
2018-12-25T09:50:49.093Z,98523.91
2018-12-25T09:53:19.309Z,98521.05
2018-12-25T09:55:49.529Z,98526.25
2018-12-25T09:58:19.695Z,98528.76
2018-12-25T10:00:50.745Z,98530.70
2018-12-25T10:03:22.253Z,98536.49
2018-12-25T10:05:52.418Z,98526.48
2018-12-25T10:08:22.619Z,98526.16
2018-12-25T10:10:52.791Z,98523.83
2018-12-25T10:13:22.948Z,98527.50
2018-12-25T10:15:56.643Z,98524.37
2018-12-25T10:18:28.520Z,98517.55
2018-12-25T10:20:58.743Z,98510.13
2018-12-25T10:23:28.917Z,98511.58
2018-12-25T10:25:59.813Z,98499.56
2018-12-25T10:28:30.031Z,98512.46
2018-12-25T10:31:00.967Z,98507.64
2018-12-25T10:33:31.983Z,98494.38
2018-12-25T10:36:02.226Z,98487.61
2018-12-25T10:38:33.222Z,98480.80
2018-12-25T10:41:03.474Z,98482.64
2018-12-25T10:43:34.911Z,98457.33
2018-12-25T10:46:05.246Z,98437.85
2018-12-25T10:48:35.398Z,98427.93
2018-12-25T10:51:05.610Z,98420.23
2018-12-25T10:53:35.774Z,98421.20
2018-12-25T10:56:06.677Z,98419.54
2018-12-25T10:58:36.811Z,98438.13
2018-12-25T11:01:23.956Z,98450.09
2018-12-25T11:03:55.230Z,98449.72
2018-12-25T11:06:25.284Z,98454.16
2018-12-25T11:08:55.362Z,98450.22
2018-12-25T11:11:25.584Z,98457.83
2018-12-25T11:13:56.514Z,98455.91
2018-12-25T11:16:27.555Z,98456.69
2018-12-25T11:18:57.749Z,98456.09
2018-12-25T11:21:27.973Z,98452.33
2018-12-25T11:23:58.088Z,98447.04
2018-12-25T11:26:29.234Z,98443.56
2018-12-25T11:28:59.418Z,98446.86
2018-12-25T11:31:31.210Z,98450.43
2018-12-25T11:34:02.678Z,98455.16
2018-12-25T11:36:32.889Z,98447.42
2018-12-25T11:39:03.776Z,98444.81
2018-12-25T11:41:35.548Z,98443.78
2018-12-25T11:44:08.080Z,98448.01
2018-12-25T11:46:38.260Z,98453.98
2018-12-25T11:49:08.423Z,98454.95
2018-12-25T11:51:38.736Z,98450.70
2018-12-25T11:54:10.486Z,98451.95
2018-12-25T11:56:41.777Z,98447.91
2018-12-25T11:59:13.538Z,98447.44
2018-12-25T12:01:43.733Z,98459.97
2018-12-25T12:04:13.893Z,98468.45
2018-12-25T12:06:44.083Z,98472.11
2018-12-25T12:09:14.362Z,98476.16
2018-12-25T12:11:45.344Z,98473.66
2018-12-25T12:14:15.561Z,98489.47
2018-12-25T12:16:45.724Z,98504.12
2018-12-25T12:19:16.712Z,98507.79
2018-12-25T12:21:47.756Z,98508.67
2018-12-25T12:24:18.909Z,98516.56
2018-12-25T12:26:49.138Z,98523.98
2018-12-25T12:29:20.977Z,98525.91
2018-12-25T12:31:51.917Z,98527.53
2018-12-25T12:34:22.059Z,98520.52
2018-12-25T12:36:52.210Z,98519.16
2018-12-25T12:39:22.383Z,98518.66
2018-12-25T12:41:54.270Z,98515.19
2018-12-25T12:44:25.524Z,98519.73
2018-12-25T12:46:56.587Z,98520.52
2018-12-25T12:49:26.697Z,98520.80
2018-12-25T12:51:56.873Z,98523.68
2018-12-25T12:54:27.118Z,98532.27
2018-12-25T12:56:57.332Z,98533.98
2018-12-25T12:59:29.043Z,98522.23
2018-12-25T13:01:59.250Z,98511.75
2018-12-25T13:04:29.520Z,98502.75
2018-12-25T13:06:59.635Z,98504.80
2018-12-25T13:09:29.881Z,98509.30
2018-12-25T13:12:00.062Z,98503.73
2018-12-25T13:14:31.705Z,98502.85
2018-12-25T13:17:02.703Z,98501.59
2018-12-25T13:19:32.928Z,98505.64
2018-12-25T13:22:03.844Z,98503.42
2018-12-25T13:24:35.599Z,98503.92
2018-12-25T13:27:05.988Z,98503.92
2018-12-25T13:29:36.211Z,98502.38
2018-12-25T13:32:06.319Z,98501.59
2018-12-25T13:34:37.543Z,98499.87
2018-12-25T13:37:07.753Z,98504.10
2018-12-25T13:39:37.895Z,98504.89
2018-12-25T13:42:08.886Z,98504.89
2018-12-25T13:44:39.800Z,98504.89
2018-12-25T13:47:10.069Z,98509.90
2018-12-25T13:49:40.985Z,98515.95
2018-12-25T13:52:11.150Z,98517.48
2018-12-25T13:54:41.405Z,98522.80
2018-12-25T13:57:11.652Z,98513.53
2018-12-25T13:59:42.043Z,98517.80
2018-12-25T14:02:12.194Z,98504.02
2018-12-25T14:04:42.397Z,98522.80
2018-12-25T14:07:12.679Z,98528.56
2018-12-25T14:09:42.799Z,98533.39
2018-12-25T14:12:12.934Z,98527.97
2018-12-25T14:14:43.242Z,98537.98
2018-12-25T14:17:13.828Z,98525.46
2018-12-25T14:19:44.004Z,98528.75
2018-12-25T14:22:15.996Z,98535.39
2018-12-25T14:24:46.142Z,98537.02
2018-12-25T14:27:16.367Z,98538.08
2018-12-25T14:29:46.611Z,98534.51
2018-12-25T14:32:17.575Z,98538.77
2018-12-25T14:34:47.711Z,98542.53
2018-12-25T14:37:17.817Z,98542.80
2018-12-25T14:39:47.912Z,98542.62
2018-12-25T14:42:18.072Z,98547.72
2018-12-25T14:44:48.192Z,98549.62
2018-12-25T14:47:18.345Z,98555.89
2018-12-25T14:49:48.562Z,98555.01
2018-12-25T14:52:19.007Z,98560.62
2018-12-25T14:54:50.642Z,98553.89
2018-12-25T14:57:20.797Z,98567.53
2018-12-25T14:59:51.761Z,98559.45
2018-12-25T15:02:22.760Z,98554.91
2018-12-25T15:04:54.935Z,98558.95
2018-12-25T15:07:25.907Z,98553.75
2018-12-25T15:09:56.936Z,98561.07
2018-12-25T15:12:27.069Z,98561.91
2018-12-25T15:14:58.367Z,98563.34
2018-12-25T15:17:28.553Z,98563.85
2018-12-25T15:19:58.718Z,98563.34
2018-12-25T15:22:28.857Z,98573.59
2018-12-25T15:24:59.333Z,98575.13
2018-12-25T15:27:29.595Z,98574.34
2018-12-25T15:30:00.235Z,98578.38
2018-12-25T15:32:30.378Z,98582.44
2018-12-25T15:35:00.673Z,98588.98
2018-12-25T15:37:30.899Z,98596.48
2018-12-25T15:40:01.045Z,98596.26
2018-12-25T15:42:33.449Z,98603.02
2018-12-25T15:45:03.620Z,98602.80
2018-12-25T15:47:33.809Z,98603.58
2018-12-25T15:50:04.049Z,98601.63
2018-12-25T15:52:34.222Z,98601.52
2018-12-25T15:55:04.383Z,98600.95
2018-12-25T15:57:34.531Z,98605.55
2018-12-25T16:00:05.770Z,98603.05
2018-12-25T16:02:35.926Z,98602.75
2018-12-25T16:05:06.936Z,98607.53
2018-12-25T16:07:37.161Z,98610.03
2018-12-25T16:10:07.342Z,98603.30
2018-12-25T16:12:37.594Z,98596.57
2018-12-25T16:15:07.858Z,98599.45
2018-12-25T16:17:41.279Z,98602.52
2018-12-25T16:20:12.523Z,98618.32
2018-12-25T16:22:42.723Z,98618.12
2018-12-25T16:25:14.443Z,98610.38
2018-12-25T16:27:44.658Z,98608.85
2018-12-25T16:30:14.886Z,98602.32
2018-12-25T16:32:45.004Z,98597.82
2018-12-25T16:35:21.548Z,98605.61
2018-12-25T16:37:51.706Z,98598.64
2018-12-25T16:40:21.907Z,98607.13
2018-12-25T16:42:52.077Z,98614.64
2018-12-25T16:45:23.117Z,98610.28
2018-12-25T16:47:54.026Z,98623.47
2018-12-25T16:50:25.062Z,98614.20
2018-12-25T16:52:56.043Z,98619.99
2018-12-25T16:55:26.260Z,98615.73
2018-12-25T16:57:56.449Z,98615.73
2018-12-25T17:00:27.388Z,98601.30
2018-12-25T17:02:57.615Z,98601.94
2018-12-25T17:05:27.837Z,98597.70
2018-12-25T17:07:58.101Z,98593.63
2018-12-25T17:10:28.816Z,98591.39
2018-12-25T17:12:59.713Z,98585.14
2018-12-25T17:15:29.918Z,98590.41
2018-12-25T17:18:02.530Z,98591.19
2018-12-25T17:20:32.647Z,98592.81
2018-12-25T17:23:02.824Z,98586.94
2018-12-25T17:25:33.043Z,98586.26
2018-12-25T17:28:03.167Z,98584.02
2018-12-25T17:30:33.381Z,98577.50
2018-12-25T17:33:04.361Z,98580.00
2018-12-25T17:35:35.376Z,98577.50
2018-12-25T17:38:05.487Z,98572.77
2018-12-25T17:40:35.737Z,98576.42
2018-12-25T17:43:06.713Z,98566.41
2018-12-25T17:45:37.708Z,98568.81
2018-12-25T17:48:07.970Z,98570.10
2018-12-25T17:50:38.229Z,98568.72
2018-12-25T17:53:11.518Z,98568.52
2018-12-25T17:55:41.750Z,98563.78
2018-12-25T17:58:12.864Z,98564.80
2018-12-25T18:00:43.055Z,98555.37
2018-12-25T18:03:14.867Z,98558.41
2018-12-25T18:05:46.571Z,98561.37
2018-12-25T18:08:16.768Z,98561.37
2018-12-25T18:10:47.727Z,98560.91
2018-12-25T18:13:18.715Z,98557.42
2018-12-25T18:15:48.885Z,98557.22
2018-12-25T18:18:19.137Z,98556.78
2018-12-25T18:20:49.341Z,98561.88
2018-12-25T18:23:19.660Z,98561.78
2018-12-25T18:25:49.828Z,98553.80
2018-12-25T18:28:20.785Z,98558.56
2018-12-25T18:30:51.075Z,98556.33
2018-12-25T18:33:22.032Z,98559.87
2018-12-25T18:35:52.168Z,98565.14
2018-12-25T18:38:22.895Z,98554.73
2018-12-25T18:40:53.844Z,98556.25
2018-12-25T18:43:23.960Z,98553.51
2018-12-25T18:45:54.241Z,98547.26
2018-12-25T18:48:24.406Z,98541.99
2018-12-25T18:50:54.585Z,98543.52
2018-12-25T18:53:24.772Z,98544.81
2018-12-25T18:55:54.960Z,98538.63
2018-12-25T18:58:26.841Z,98537.17
2018-12-25T19:00:57.925Z,98539.84
2018-12-25T19:03:28.083Z,98534.48
2018-12-25T19:05:58.307Z,98538.50
2018-12-25T19:08:29.361Z,98538.29
2018-12-25T19:11:02.406Z,98531.06
2018-12-25T19:13:32.557Z,98526.44
2018-12-25T19:16:03.603Z,98527.11
2018-12-25T19:18:34.555Z,98516.91
2018-12-25T19:21:04.692Z,98518.84
2018-12-25T19:23:35.858Z,98515.36
2018-12-25T19:26:06.803Z,98521.61
2018-12-25T19:28:37.063Z,98521.02
2018-12-25T19:31:08.072Z,98527.42
2018-12-25T19:33:38.972Z,98528.17
2018-12-25T19:36:09.167Z,98529.68
2018-12-25T19:38:39.488Z,98530.50
2018-12-25T19:41:10.303Z,98532.73
2018-12-25T19:43:40.604Z,98527.84
2018-12-25T19:46:11.004Z,98521.77
2018-12-25T19:48:41.186Z,98521.77
2018-12-25T19:51:13.793Z,98521.77
2018-12-25T19:53:44.853Z,98521.41
2018-12-25T19:56:14.963Z,98530.73
2018-12-25T19:58:45.143Z,98530.73
2018-12-25T20:01:15.291Z,98527.76
2018-12-25T20:04:07.666Z,98528.64
2018-12-25T20:07:26.500Z,98531.29
2018-12-25T20:10:29.680Z,98540.61
2018-12-25T20:13:35.624Z,98533.12
2018-12-25T20:17:01.896Z,98535.61
2018-12-25T20:20:16.215Z,98539.98
2018-12-25T20:23:09.119Z,98539.36
2018-12-25T20:26:20.328Z,98541.64
2018-12-25T20:29:42.482Z,98535.70
2018-12-25T20:32:38.080Z,98536.23
2018-12-25T20:35:58.404Z,98537.98
2018-12-25T20:39:02.482Z,98532.23
2018-12-25T20:42:10.573Z,98532.01
2018-12-25T20:45:17.619Z,98537.27
2018-12-25T20:48:30.694Z,98541.74
2018-12-25T20:51:51.166Z,98544.80
2018-12-25T20:55:10.340Z,98547.81
2018-12-25T20:58:39.456Z,98538.56
2018-12-25T21:01:50.815Z,98532.88
2018-12-25T21:05:06.308Z,98531.89
2018-12-25T21:08:19.405Z,98527.16
2018-12-25T21:11:42.755Z,98517.18
2018-12-25T21:15:04.367Z,98510.58
2018-12-25T21:18:26.354Z,98505.48
2018-12-25T21:21:30.370Z,98495.71
2018-12-25T21:24:36.048Z,98494.68
2018-12-25T21:27:33.158Z,98491.55
2018-12-25T21:30:10.362Z,98480.65
2018-12-25T21:32:42.446Z,98472.64
2018-12-25T21:35:22.828Z,98480.84
2018-12-25T21:37:54.070Z,98486.31
2018-12-25T21:40:24.383Z,98486.31
2018-12-25T21:42:55.160Z,98491.09
2018-12-25T21:45:25.572Z,98489.78
2018-12-25T21:47:57.771Z,98492.13
2018-12-25T21:50:28.337Z,98497.59
2018-12-25T21:52:58.595Z,98493.59
2018-12-25T21:55:29.395Z,98489.34
2018-12-25T21:58:00.395Z,98481.11
2018-12-25T22:00:32.796Z,98483.87
2018-12-25T22:03:04.744Z,98487.39
2018-12-25T22:05:35.116Z,98484.17
2018-12-25T22:08:05.256Z,98487.92
2018-12-25T22:10:36.219Z,98483.67
2018-12-25T22:13:06.384Z,98469.84
2018-12-25T22:15:38.155Z,98470.23
2018-12-25T22:18:09.584Z,98470.50
2018-12-25T22:20:40.674Z,98470.77
2018-12-25T22:23:12.565Z,98474.00
2018-12-25T22:25:42.889Z,98473.04
2018-12-25T22:28:13.278Z,98478.03
2018-12-25T22:30:43.543Z,98472.27
2018-12-25T22:33:13.736Z,98472.05
2018-12-25T22:35:44.075Z,98473.78
2018-12-25T22:38:14.415Z,98480.28
2018-12-25T22:40:44.651Z,98486.77
2018-12-25T22:43:14.845Z,98486.82
2018-12-25T22:45:45.077Z,98486.34
2018-12-25T22:48:15.351Z,98474.23
2018-12-25T22:50:45.602Z,98487.08
2018-12-25T22:53:15.790Z,98485.35
2018-12-25T22:55:46.033Z,98488.59
2018-12-25T22:58:17.111Z,98488.37
2018-12-25T23:00:47.445Z,98485.77
2018-12-25T23:03:18.413Z,98489.98
2018-12-25T23:05:48.594Z,98492.77
2018-12-25T23:08:18.767Z,98484.67
2018-12-25T23:10:49.079Z,98488.77
2018-12-25T23:13:21.127Z,98482.91
2018-12-25T23:15:52.150Z,98484.16
2018-12-25T23:18:23.063Z,98485.19
2018-12-25T23:20:53.293Z,98479.20
2018-12-25T23:23:23.454Z,98487.23
2018-12-25T23:25:53.651Z,98485.01
2018-12-25T23:28:23.784Z,98486.08
2018-12-25T23:30:54.119Z,98481.59
2018-12-25T23:33:24.415Z,98480.12
2018-12-25T23:35:54.612Z,98479.51
2018-12-25T23:38:24.769Z,98478.38
2018-12-25T23:40:55.748Z,98473.61
2018-12-25T23:43:26.683Z,98474.96
2018-12-25T23:45:58.542Z,98470.86
2018-12-25T23:48:28.716Z,98471.33
2018-12-25T23:50:58.940Z,98477.20
2018-12-25T23:53:29.078Z,98470.59
2018-12-25T23:55:59.367Z,98467.34
2018-12-25T23:58:30.752Z,98470.09
